Wetterdaten: aktuell Samstag, 04.02.2023 13:26
Datum Zeit Temperatur Luftfeuchte Luftdruck Regen Wind Richtung Richtung Taupunkt Windchill Windben
04.02.2023 13:26 3,3 C 70 % 1036,0 hPa 0,0 l/m 7,2 km/h (2 Bft) N-NW 338 -1,6 C 2,5 C 9,7 km/h (2 Bft)
04.02.2023 13:25 3,3 C 70 % 1036,0 hPa 0,0 l/m 8,2 km/h (2 Bft) N-NW 333 -1,6 C 1,6 C 9,7 km/h (2 Bft)
04.02.2023 13:24 3,3 C 71 % 1036,0 hPa 0,0 l/m 7,9 km/h (2 Bft) NW 315 -1,4 C 1,9 C 8,0 km/h (2 Bft)
04.02.2023 13:23 3,3 C 71 % 1036,0 hPa 0,0 l/m 6,7 km/h (2 Bft) N-NW 343 -1,4 C 3,0 C 9,7 km/h (2 Bft)
04.02.2023 13:22 3,3 C 71 % 1036,0 hPa 0,0 l/m 9,4 km/h (2 Bft) N 355 -1,4 C 0,7 C 12,9 km/h (3 Bft)
04.02.2023 13:21 3,4 C 70 % 1036,0 hPa 0,0 l/m 6,7 km/h (2 Bft) N-NW 338 -1,5 C 3,1 C 9,7 km/h (2 Bft)
04.02.2023 13:20 3,4 C 70 % 1036,0 hPa 0,0 l/m 6,7 km/h (2 Bft) NW 324 -1,5 C 3,1 C 8,0 km/h (2 Bft)
04.02.2023 13:19 3,5 C 71 % 1036,0 hPa 0,0 l/m 8,0 km/h (2 Bft) N-NO 14 -1,3 C 2,0 C 12,9 km/h (3 Bft)
04.02.2023 13:18 3,5 C 69 % 1035,9 hPa 0,0 l/m 7,9 km/h (2 Bft) N 355 -1,6 C 2,1 C 12,9 km/h (3 Bft)
04.02.2023 13:17 3,6 C 69 % 1036,0 hPa 0,0 l/m 6,9 km/h (2 Bft) NW 323 -1,5 C 3,1 C 8,0 km/h (2 Bft)
04.02.2023 13:16 3,6 C 68 % 1036,0 hPa 0,0 l/m 8,9 km/h (2 Bft) NW 319 -1,7 C 1,4 C 12,9 km/h (3 Bft)
04.02.2023 13:15 3,6 C 69 % 1036,0 hPa 0,0 l/m 8,7 km/h (2 Bft) N-NW 335 -1,5 C 1,5 C 12,9 km/h (3 Bft)
04.02.2023 13:14 3,6 C 69 % 1036,0 hPa 0,0 l/m 8,5 km/h (2 Bft) N-NO 31 -1,5 C 1,7 C 14,5 km/h (3 Bft)
04.02.2023 13:13 3,7 C 69 % 1035,9 hPa 0,0 l/m 3,8 km/h (1 Bft) N 360 -1,4 C 3,7 C 6,4 km/h (2 Bft)
04.02.2023 13:12 3,7 C 70 % 1036,0 hPa 0,0 l/m 5,6 km/h (2 Bft) N 355 -1,3 C 3,7 C 8,0 km/h (2 Bft)
04.02.2023 13:11 3,6 C 69 % 1036,0 hPa 0,0 l/m 4,9 km/h (1 Bft) N-NO 17 -1,5 C 3,6 C 6,4 km/h (2 Bft)
04.02.2023 13:10 3,6 C 68 % 1035,9 hPa 0,0 l/m 8,5 km/h (2 Bft) N-NW 346 -1,7 C 1,7 C 14,5 km/h (3 Bft)
04.02.2023 13:09 3,6 C 67 % 1036,0 hPa 0,0 l/m 8,8 km/h (2 Bft) N 355 -1,9 C 1,5 C 12,9 km/h (3 Bft)
04.02.2023 13:08 3,6 C 67 % 1036,0 hPa 0,0 l/m 6,0 km/h (2 Bft) N-NO 24 -1,9 C 3,6 C 11,3 km/h (2 Bft)
04.02.2023 13:07 3,6 C 66 % 1036,0 hPa 0,0 l/m 4,8 km/h (1 Bft) N-NW 342 -2,1 C 3,6 C 8,0 km/h (2 Bft)
04.02.2023 13:06 3,5 C 65 % 1036,0 hPa 0,0 l/m 3,5 km/h (1 Bft) N 355 -2,4 C 3,5 C 6,4 km/h (2 Bft)
04.02.2023 13:05 3,6 C 66 % 1035,9 hPa 0,0 l/m 5,5 km/h (2 Bft) N 355 -2,1 C 3,6 C 9,7 km/h (2 Bft)
04.02.2023 13:04 3,6 C 65 % 1036,0 hPa 0,0 l/m 6,7 km/h (2 Bft) N-NW 337 -2,4 C 3,3 C 11,3 km/h (2 Bft)
04.02.2023 13:03 3,6 C 66 % 1035,9 hPa 0,0 l/m 5,7 km/h (2 Bft) N-NO 24 -2,1 C 3,6 C 8,0 km/h (2 Bft)
04.02.2023 13:02 3,6 C 66 % 1035,9 hPa 0,0 l/m 6,8 km/h (2 Bft) N 11 -2,1 C 3,2 C 11,3 km/h (2 Bft)
04.02.2023 13:01 3,7 C 68 % 1035,9 hPa 0,0 l/m 7,8 km/h (2 Bft) N-NO 16 -1,6 C 2,4 C 14,5 km/h (3 Bft)
04.02.2023 13:00 3,7 C 68 % 1035,9 hPa 0,0 l/m 9,3 km/h (2 Bft) N-NW 328 -1,6 C 1,2 C 14,5 km/h (3 Bft)
04.02.2023 12:59 3,7 C 68 % 1035,9 hPa 0,0 l/m 8,8 km/h (2 Bft) N-NW 329 -1,6 C 1,6 C 12,9 km/h (3 Bft)
04.02.2023 12:58 3,7 C 67 % 1035,9 hPa 0,0 l/m 7,5 km/h (2 Bft) N-NW 327 -1,8 C 2,7 C 12,9 km/h (3 Bft)
04.02.2023 12:57 3,8 C 66 % 1035,9 hPa 0,0 l/m 5,8 km/h (2 Bft) NW 325 -2,0 C 3,8 C 8,0 km/h (2 Bft)
04.02.2023 12:56 3,7 C 65 % 1036,0 hPa 0,0 l/m 6,1 km/h (2 Bft) N-NO 33 -2,3 C 3,7 C 8,0 km/h (2 Bft)
04.02.2023 12:55 3,7 C 66 % 1036,0 hPa 0,0 l/m 5,4 km/h (2 Bft) N-NO 17 -2,0 C 3,7 C 8,0 km/h (2 Bft)
04.02.2023 12:54 3,7 C 67 % 1036,0 hPa 0,0 l/m 6,9 km/h (2 Bft) N 5 -1,8 C 3,2 C 12,9 km/h (3 Bft)
04.02.2023 12:53 3,6 C 66 % 1036,0 hPa 0,0 l/m 5,1 km/h (1 Bft) N-NW 344 -2,1 C 3,6 C 6,4 km/h (2 Bft)
04.02.2023 12:52 3,6 C 67 % 1036,0 hPa 0,0 l/m 3,9 km/h (1 Bft) N-NO 29 -1,9 C 3,6 C 6,4 km/h (2 Bft)
04.02.2023 12:51 3,6 C 67 % 1035,9 hPa 0,0 l/m 4,9 km/h (1 Bft) N 355 -1,9 C 3,6 C 6,4 km/h (2 Bft)
04.02.2023 12:50 3,6 C 67 % 1036,0 hPa 0,0 l/m 4,7 km/h (1 Bft) N-NW 338 -1,9 C 3,6 C 6,4 km/h (2 Bft)
04.02.2023 12:49 3,6 C 68 % 1036,0 hPa 0,0 l/m 3,9 km/h (1 Bft) N 5 -1,7 C 3,6 C 4,8 km/h (1 Bft)
04.02.2023 12:48 3,6 C 68 % 1036,0 hPa 0,0 l/m 6,0 km/h (2 Bft) NO 43 -1,7 C 3,6 C 11,3 km/h (2 Bft)
04.02.2023 12:47 3,6 C 68 % 1036,0 hPa 0,0 l/m 6,3 km/h (2 Bft) N-NO 32 -1,7 C 3,6 C 12,9 km/h (3 Bft)
04.02.2023 12:46 3,6 C 69 % 1036,1 hPa 0,0 l/m 5,7 km/h (2 Bft) NO 37 -1,5 C 3,6 C 9,7 km/h (2 Bft)
04.02.2023 12:45 3,6 C 69 % 1036,0 hPa 0,0 l/m 8,8 km/h (2 Bft) N-NW 331 -1,5 C 1,5 C 12,9 km/h (3 Bft)
04.02.2023 12:44 3,6 C 69 % 1036,1 hPa 0,0 l/m 10,1 km/h (2 Bft) N-NW 346 -1,5 C 0,5 C 14,5 km/h (3 Bft)
04.02.2023 12:43 3,6 C 67 % 1036,1 hPa 0,0 l/m 8,2 km/h (2 Bft) NW 322 -1,9 C 2,0 C 12,9 km/h (3 Bft)
04.02.2023 12:42 3,6 C 66 % 1036,0 hPa 0,0 l/m 3,8 km/h (1 Bft) N 5 -2,1 C 3,6 C 6,4 km/h (2 Bft)
04.02.2023 12:41 3,6 C 67 % 1036,1 hPa 0,0 l/m 8,7 km/h (2 Bft) NO 49 -1,9 C 1,5 C 16,1 km/h (3 Bft)
04.02.2023 12:40 3,6 C 69 % 1036,1 hPa 0,0 l/m 6,5 km/h (2 Bft) O-NO 68 -1,5 C 3,5 C 12,9 km/h (3 Bft)
04.02.2023 12:39 3,6 C 68 % 1036,1 hPa 0,0 l/m 6,4 km/h (2 Bft) NO 48 -1,7 C 3,6 C 8,0 km/h (2 Bft)
04.02.2023 12:38 3,6 C 68 % 1036,1 hPa 0,0 l/m 7,5 km/h (2 Bft) NW 323 -1,7 C 2,6 C 9,7 km/h (2 Bft)
04.02.2023 12:37 3,6 C 69 % 1036,1 hPa 0,0 l/m 11,1 km/h (2 Bft) N 355 -1,5 C -0,3 C 12,9 km/h (3 Bft)
04.02.2023 12:36 3,7 C 70 % 1036,1 hPa 0,0 l/m 9,0 km/h (2 Bft) W-NW 301 -1,3 C 1,4 C 14,5 km/h (3 Bft)
04.02.2023 12:35 3,7 C 70 % 1036,1 hPa 0,0 l/m 10,5 km/h (2 Bft) N-NW 343 -1,3 C 0,3 C 14,5 km/h (3 Bft)
04.02.2023 12:34 3,7 C 70 % 1036,1 hPa 0,0 l/m 13,4 km/h (3 Bft) NW 309 -1,3 C -1,6 C 17,7 km/h (3 Bft)
04.02.2023 12:33 3,7 C 71 % 1036,1 hPa 0,0 l/m 10,2 km/h (2 Bft) NW 320 -1,1 C 0,5 C 14,5 km/h (3 Bft)
04.02.2023 12:32 3,8 C 70 % 1036,1 hPa 0,0 l/m 9,7 km/h (2 Bft) NW 313 -1,2 C 1,0 C 12,9 km/h (3 Bft)
04.02.2023 12:31 3,8 C 69 % 1036,1 hPa 0,0 l/m 9,3 km/h (2 Bft) N-NW 342 -1,4 C 1,3 C 12,9 km/h (3 Bft)
04.02.2023 12:30 3,8 C 68 % 1036,1 hPa 0,0 l/m 9,3 km/h (2 Bft) NW 321 -1,6 C 1,3 C 14,5 km/h (3 Bft)
04.02.2023 12:29 3,9 C 67 % 1036,0 hPa 0,0 l/m 5,3 km/h (1 Bft) W-NW 296 -1,7 C 3,9 C 8,0 km/h (2 Bft)
04.02.2023 12:28 3,9 C 67 % 1036,0 hPa 0,0 l/m 5,1 km/h (1 Bft) W-NW 301 -1,7 C 3,9 C 8,0 km/h (2 Bft)
04.02.2023 12:27 3,9 C 68 % 1036,1 hPa 0,0 l/m 5,9 km/h (2 Bft) N-NW 344 -1,5 C 3,9 C 8,0 km/h (2 Bft)
04.02.2023 12:26 3,9 C 69 % 1036,1 hPa 0,0 l/m 6,0 km/h (2 Bft) N-NO 25 -1,3 C 3,9 C 8,0 km/h (2 Bft)
04.02.2023 12:25 3,8 C 69 % 1036,1 hPa 0,0 l/m 8,9 km/h (2 Bft) N 355 -1,4 C 1,6 C 12,9 km/h (3 Bft)
04.02.2023 12:24 3,8 C 69 % 1036,0 hPa 0,0 l/m 4,6 km/h (1 Bft) NO 38 -1,4 C 3,8 C 8,0 km/h (2 Bft)
04.02.2023 12:23 3,7 C 68 % 1036,0 hPa 0,0 l/m 6,8 km/h (2 Bft) N 355 -1,6 C 3,3 C 8,0 km/h (2 Bft)
04.02.2023 12:22 3,7 C 68 % 1036,0 hPa 0,0 l/m 6,6 km/h (2 Bft) N-NO 31 -1,6 C 3,5 C 8,0 km/h (2 Bft)
04.02.2023 12:21 3,6 C 69 % 1036,0 hPa 0,0 l/m 7,2 km/h (2 Bft) N-NO 31 -1,5 C 2,9 C 12,9 km/h (3 Bft)
04.02.2023 12:20 3,5 C 68 % 1036,1 hPa 0,0 l/m 4,2 km/h (1 Bft) N-NO 26 -1,8 C 3,5 C 6,4 km/h (2 Bft)
04.02.2023 12:19 3,5 C 69 % 1036,1 hPa 0,0 l/m 3,5 km/h (1 Bft) NW 318 -1,6 C 3,5 C 6,4 km/h (2 Bft)
04.02.2023 12:18 3,4 C 69 % 1036,0 hPa 0,0 l/m 6,4 km/h (2 Bft) N 355 -1,7 C 3,4 C 6,4 km/h (2 Bft)
04.02.2023 12:17 3,4 C 70 % 1036,0 hPa 0,0 l/m 6,4 km/h (2 Bft) N 355 -1,5 C 3,4 C 6,4 km/h (2 Bft)
04.02.2023 12:16 3,3 C 70 % 1036,0 hPa 0,0 l/m 6,4 km/h (2 Bft) N 355 -1,6 C 3,3 C 6,4 km/h (2 Bft)
04.02.2023 12:15 3,2 C 71 % 1036,0 hPa 0,0 l/m 6,4 km/h (2 Bft) N 355 -1,5 C 3,2 C 6,4 km/h (2 Bft)
04.02.2023 12:14 3,2 C 72 % 1036,0 hPa 0,0 l/m 6,4 km/h (2 Bft) N 355 -1,3 C 3,2 C 6,4 km/h (2 Bft)
04.02.2023 12:13 3,2 C 73 % 1036,0 hPa 0,0 l/m 6,4 km/h (2 Bft) N 355 -1,2 C 3,2 C 6,4 km/h (2 Bft)
04.02.2023 12:12 3,2 C 72 % 1035,9 hPa 0,0 l/m 6,4 km/h (2 Bft) N 355 -1,3 C 3,2 C 6,4 km/h (2 Bft)
04.02.2023 12:11 3,2 C 71 % 1035,9 hPa 0,0 l/m 6,4 km/h (2 Bft) N 355 -1,5 C 3,2 C 6,4 km/h (2 Bft)
04.02.2023 12:10 3,2 C 72 % 1035,9 hPa 0,0 l/m 6,4 km/h (2 Bft) N 355 -1,3 C 3,2 C 6,4 km/h (2 Bft)
04.02.2023 12:09 3,3 C 72 % 1035,9 hPa 0,0 l/m 6,4 km/h (2 Bft) N 355 -1,3 C 3,3 C 6,4 km/h (2 Bft)
04.02.2023 12:08 3,3 C 72 % 1035,9 hPa 0,0 l/m 6,4 km/h (2 Bft) N 355 -1,3 C 3,3 C 6,4 km/h (2 Bft)
04.02.2023 12:07 3,4 C 70 % 1035,8 hPa 0,0 l/m 6,4 km/h (2 Bft) N 355 -1,5 C 3,4 C 6,4 km/h (2 Bft)
04.02.2023 12:06 3,4 C 70 % 1035,8 hPa 0,0 l/m 6,4 km/h (2 Bft) N 355 -1,5 C 3,4 C 6,4 km/h (2 Bft)
04.02.2023 12:05 3,5 C 72 % 1035,9 hPa 0,0 l/m 6,4 km/h (2 Bft) N 355 -1,1 C 3,5 C 6,4 km/h (2 Bft)
04.02.2023 12:04 3,6 C 74 % 1035,8 hPa 0,0 l/m 6,4 km/h (2 Bft) N 355 -0,6 C 3,6 C 6,4 km/h (2 Bft)
04.02.2023 12:03 3,6 C 73 % 1035,8 hPa 0,0 l/m 6,4 km/h (2 Bft) N 355 -0,8 C 3,6 C 6,4 km/h (2 Bft)
04.02.2023 12:02 3,6 C 73 % 1035,8 hPa 0,0 l/m 6,4 km/h (2 Bft) N 355 -0,8 C 3,6 C 6,4 km/h (2 Bft)
04.02.2023 12:01 3,7 C 73 % 1035,8 hPa 0,0 l/m 6,4 km/h (2 Bft) N 355 -0,7 C 3,7 C 6,4 km/h (2 Bft)
04.02.2023 12:00 3,7 C 73 % 1035,8 hPa 0,0 l/m 6,4 km/h (2 Bft) N 355 -0,7 C 3,7 C 6,4 km/h (2 Bft)
04.02.2023 11:59 3,7 C 75 % 1035,9 hPa 0,0 l/m 6,4 km/h (2 Bft) N 355 -0,3 C 3,7 C 6,4 km/h (2 Bft)
04.02.2023 11:58 3,7 C 74 % 1035,9 hPa 0,0 l/m 6,4 km/h (2 Bft) N 355 -0,5 C 3,7 C 6,4 km/h (2 Bft)
04.02.2023 11:57 3,6 C 75 % 1035,8 hPa 0,0 l/m 6,4 km/h (2 Bft) N 355 -0,4 C 3,6 C 6,4 km/h (2 Bft)
04.02.2023 11:56 3,4 C 74 % 1035,9 hPa 0,0 l/m 6,4 km/h (2 Bft) N 355 -0,8 C 3,4 C 6,4 km/h (2 Bft)
04.02.2023 11:55 3,5 C 74 % 1035,9 hPa 0,0 l/m 6,4 km/h (2 Bft) N 355 -0,7 C 3,5 C 6,4 km/h (2 Bft)
04.02.2023 11:54 3,5 C 73 % 1035,9 hPa 0,0 l/m 6,4 km/h (2 Bft) N 355 -0,9 C 3,5 C 6,4 km/h (2 Bft)
04.02.2023 11:53 3,5 C 73 % 1035,9 hPa 0,0 l/m 6,4 km/h (2 Bft) N 355 -0,9 C 3,5 C 6,4 km/h (2 Bft)
04.02.2023 11:52 3,6 C 74 % 1035,9 hPa 0,0 l/m 6,6 km/h (2 Bft) N 355 -0,6 C 3,4 C 8,0 km/h (2 Bft)
04.02.2023 11:51 3,6 C 72 % 1035,9 hPa 0,0 l/m 10,4 km/h (2 Bft) N-NW 344 -1,0 C 0,2 C 12,9 km/h (3 Bft)
04.02.2023 11:50 3,6 C 73 % 1035,9 hPa 0,0 l/m 12,5 km/h (2 Bft) N-NW 341 -0,8 C -1,2 C 12,9 km/h (3 Bft)
04.02.2023 11:49 3,6 C 74 % 1035,9 hPa 0,0 l/m 11,3 km/h (2 Bft) N-NW 332 -0,6 C -0,4 C 12,9 km/h (3 Bft)
04.02.2023 11:48 3,6 C 72 % 1035,9 hPa 0,0 l/m 9,7 km/h (2 Bft) W-NW 286 -1,0 C 0,8 C 9,7 km/h (2 Bft)
04.02.2023 11:47 3,5 C 72 % 1035,8 hPa 0,0 l/m 9,7 km/h (2 Bft) W-NW 286 -1,1 C 0,6 C 9,7 km/h (2 Bft)
_ Min-Zeit 08:14 12:56 17:30 - 22:47 - - 13:06 18:04 12:49
Minimum _ 2,2 C 65 % 1021,8 hPa - 2,1 km/h (1 Bft) - - -2,4 C -10,0 C 4,8 km/h (1 Bft)
_ Max-Zeit 20:28 21:58 12:19 22:01 18:04 - - 21:58 22:46 18:38
Maximum _ 5,8 C 94 % 1036,1 hPa 0,4 l/m 51,5 km/h
W-SW (7 Bft)
- - 4,8 C 5,3 C 62,8 km/h
W (7 Bft)
Durchschnitt _ 4,4 C 84 % 1027,3 hPa #5,8 l/m 24,4 km/h (4 Bft) W-NW - 2,0 C -4,5 C 28,2 km/h (5 Bft)
(c) Wettermessnetz Ostbayern